sensor_id;sensor_type;location;lat;lon;timestamp;pressure;altitude;pressure_sealevel;temperature;humidity
61436;BME280;47304;47.456;19.160;2023-04-04T00:01:52;100496.65;;;2.84;39.87
61436;BME280;47304;47.456;19.160;2023-04-04T00:04:19;100491.25;;;2.83;39.78
61436;BME280;47304;47.456;19.160;2023-04-04T00:06:45;100493.66;;;2.82;39.90
61436;BME280;47304;47.456;19.160;2023-04-04T00:09:12;100500.56;;;2.82;39.96
61436;BME280;47304;47.456;19.160;2023-04-04T00:11:40;100499.87;;;2.82;40.23
61436;BME280;47304;47.456;19.160;2023-04-04T00:14:06;100509.80;;;2.79;40.16
61436;BME280;47304;47.456;19.160;2023-04-04T00:16:33;100512.82;;;2.76;40.18
61436;BME280;47304;47.456;19.160;2023-04-04T00:19:00;100514.30;;;2.73;40.14
61436;BME280;47304;47.456;19.160;2023-04-04T00:21:26;100513.35;;;2.71;40.19
61436;BME280;47304;47.456;19.160;2023-04-04T00:23:53;100515.35;;;2.69;40.37
61436;BME280;47304;47.456;19.160;2023-04-04T00:26:19;100511.83;;;2.67;40.51
61436;BME280;47304;47.456;19.160;2023-04-04T00:28:46;100514.72;;;2.65;40.67
61436;BME280;47304;47.456;19.160;2023-04-04T00:31:12;100509.48;;;2.64;40.85
61436;BME280;47304;47.456;19.160;2023-04-04T00:33:39;100507.54;;;2.63;40.91
61436;BME280;47304;47.456;19.160;2023-04-04T00:36:06;100511.42;;;2.60;40.78
61436;BME280;47304;47.456;19.160;2023-04-04T00:38:33;100516.95;;;2.60;41.00
61436;BME280;47304;47.456;19.160;2023-04-04T00:40:59;100517.81;;;2.60;40.92
61436;BME280;47304;47.456;19.160;2023-04-04T00:43:26;100515.25;;;2.61;40.94
61436;BME280;47304;47.456;19.160;2023-04-04T00:45:53;100513.00;;;2.60;40.74
61436;BME280;47304;47.456;19.160;2023-04-04T00:48:19;100513.00;;;2.60;40.78
61436;BME280;47304;47.456;19.160;2023-04-04T00:50:46;100510.91;;;2.61;40.91
61436;BME280;47304;47.456;19.160;2023-04-04T00:53:12;100502.73;;;2.59;40.98
61436;BME280;47304;47.456;19.160;2023-04-04T00:55:39;100498.52;;;2.57;41.00
61436;BME280;47304;47.456;19.160;2023-04-04T00:58:05;100488.77;;;2.55;41.17
61436;BME280;47304;47.456;19.160;2023-04-04T01:00:34;100487.84;;;2.53;41.11
61436;BME280;47304;47.456;19.160;2023-04-04T01:03:00;100482.59;;;2.52;41.35
61436;BME280;47304;47.456;19.160;2023-04-04T01:05:27;100479.58;;;2.49;41.41
61436;BME280;47304;47.456;19.160;2023-04-04T01:07:54;100468.83;;;2.43;41.45
61436;BME280;47304;47.456;19.160;2023-04-04T01:10:20;100468.16;;;2.39;41.62
61436;BME280;47304;47.456;19.160;2023-04-04T01:12:47;100461.88;;;2.32;41.66
61436;BME280;47304;47.456;19.160;2023-04-04T01:15:13;100458.29;;;2.28;41.89
61436;BME280;47304;47.456;19.160;2023-04-04T01:17:40;100454.03;;;2.25;42.00
61436;BME280;47304;47.456;19.160;2023-04-04T01:20:13;100452.87;;;2.22;41.93
61436;BME280;47304;47.456;19.160;2023-04-04T01:22:42;100449.17;;;2.19;42.04
61436;BME280;47304;47.456;19.160;2023-04-04T01:25:11;100446.32;;;2.17;42.33
61436;BME280;47304;47.456;19.160;2023-04-04T01:27:39;100440.08;;;2.16;42.32
61436;BME280;47304;47.456;19.160;2023-04-04T01:30:06;100439.34;;;2.15;42.46
61436;BME280;47304;47.456;19.160;2023-04-04T01:32:41;100438.21;;;2.12;42.57
61436;BME280;47304;47.456;19.160;2023-04-04T01:35:30;100432.81;;;2.11;42.57
61436;BME280;47304;47.456;19.160;2023-04-04T01:40:31;100420.31;;;2.04;42.84
61436;BME280;47304;47.456;19.160;2023-04-04T01:42:58;100419.70;;;2.02;43.06
61436;BME280;47304;47.456;19.160;2023-04-04T01:45:25;100415.11;;;1.99;43.22
61436;BME280;47304;47.456;19.160;2023-04-04T01:47:51;100412.85;;;1.94;43.17
61436;BME280;47304;47.456;19.160;2023-04-04T01:50:18;100414.04;;;1.93;43.24
61436;BME280;47304;47.456;19.160;2023-04-04T01:52:44;100408.47;;;1.92;43.22
61436;BME280;47304;47.456;19.160;2023-04-04T01:55:11;100403.52;;;1.89;43.35
61436;BME280;47304;47.456;19.160;2023-04-04T01:57:37;100400.02;;;1.87;43.69
61436;BME280;47304;47.456;19.160;2023-04-04T02:00:04;100395.71;;;1.88;43.73
61436;BME280;47304;47.456;19.160;2023-04-04T02:02:31;100389.16;;;1.88;43.58
61436;BME280;47304;47.456;19.160;2023-04-04T02:04:58;100389.80;;;1.87;43.64
61436;BME280;47304;47.456;19.160;2023-04-04T02:07:24;100383.30;;;1.83;43.68
61436;BME280;47304;47.456;19.160;2023-04-04T02:09:51;100379.19;;;1.79;43.62
61436;BME280;47304;47.456;19.160;2023-04-04T02:12:17;100372.36;;;1.77;43.85
61436;BME280;47304;47.456;19.160;2023-04-04T02:14:44;100367.77;;;1.74;44.03
61436;BME280;47304;47.456;19.160;2023-04-04T02:17:10;100365.30;;;1.73;44.15
61436;BME280;47304;47.456;19.160;2023-04-04T02:19:37;100359.87;;;1.70;44.21
61436;BME280;47304;47.456;19.160;2023-04-04T02:22:03;100355.09;;;1.67;44.14
61436;BME280;47304;47.456;19.160;2023-04-04T02:24:30;100350.71;;;1.66;44.32
61436;BME280;47304;47.456;19.160;2023-04-04T02:26:56;100351.91;;;1.65;44.36
61436;BME280;47304;47.456;19.160;2023-04-04T02:29:23;100345.28;;;1.63;44.28
61436;BME280;47304;47.456;19.160;2023-04-04T02:31:49;100342.45;;;1.61;44.42
61436;BME280;47304;47.456;19.160;2023-04-04T02:34:16;100346.38;;;1.60;44.53
61436;BME280;47304;47.456;19.160;2023-04-04T02:36:42;100344.21;;;1.57;44.49
61436;BME280;47304;47.456;19.160;2023-04-04T02:39:09;100349.32;;;1.55;44.57
61436;BME280;47304;47.456;19.160;2023-04-04T02:41:35;100352.56;;;1.54;44.74
61436;BME280;47304;47.456;19.160;2023-04-04T02:44:02;100350.50;;;1.54;44.79
61436;BME280;47304;47.456;19.160;2023-04-04T02:46:28;100351.29;;;1.52;44.82
61436;BME280;47304;47.456;19.160;2023-04-04T02:48:55;100362.48;;;1.51;44.93
61436;BME280;47304;47.456;19.160;2023-04-04T02:51:21;100363.50;;;1.51;45.00
61436;BME280;47304;47.456;19.160;2023-04-04T02:53:48;100361.70;;;1.54;44.93
61436;BME280;47304;47.456;19.160;2023-04-04T02:56:14;100363.49;;;1.56;45.02
61436;BME280;47304;47.456;19.160;2023-04-04T02:58:41;100368.24;;;1.59;45.45
61436;BME280;47304;47.456;19.160;2023-04-04T03:01:08;100372.01;;;1.58;45.15
61436;BME280;47304;47.456;19.160;2023-04-04T03:03:34;100372.48;;;1.56;45.17
61436;BME280;47304;47.456;19.160;2023-04-04T03:06:01;100376.79;;;1.56;45.19
61436;BME280;47304;47.456;19.160;2023-04-04T03:08:28;100373.69;;;1.56;45.32
61436;BME280;47304;47.456;19.160;2023-04-04T03:10:55;100375.48;;;1.58;45.40
61436;BME280;47304;47.456;19.160;2023-04-04T03:13:21;100379.36;;;1.60;45.33
61436;BME280;47304;47.456;19.160;2023-04-04T03:15:48;100379.11;;;1.62;45.38
61436;BME280;47304;47.456;19.160;2023-04-04T03:18:14;100385.70;;;1.64;45.27
61436;BME280;47304;47.456;19.160;2023-04-04T03:20:41;100380.56;;;1.64;45.48
61436;BME280;47304;47.456;19.160;2023-04-04T03:23:08;100387.72;;;1.62;45.42
61436;BME280;47304;47.456;19.160;2023-04-04T03:25:34;100386.03;;;1.63;45.56
61436;BME280;47304;47.456;19.160;2023-04-04T03:28:10;100385.63;;;1.62;45.51
61436;BME280;47304;47.456;19.160;2023-04-04T03:30:37;100389.20;;;1.60;45.71
61436;BME280;47304;47.456;19.160;2023-04-04T03:33:07;100393.55;;;1.61;45.59
61436;BME280;47304;47.456;19.160;2023-04-04T03:35:38;100394.59;;;1.61;45.63
61436;BME280;47304;47.456;19.160;2023-04-04T03:38:05;100393.02;;;1.61;45.76
61436;BME280;47304;47.456;19.160;2023-04-04T03:40:32;100399.93;;;1.61;45.83
61436;BME280;47304;47.456;19.160;2023-04-04T03:42:58;100404.04;;;1.59;45.84
61436;BME280;47304;47.456;19.160;2023-04-04T03:45:24;100402.59;;;1.58;45.69
61436;BME280;47304;47.456;19.160;2023-04-04T03:47:51;100400.36;;;1.59;45.88
61436;BME280;47304;47.456;19.160;2023-04-04T03:50:18;100402.30;;;1.60;45.88
61436;BME280;47304;47.456;19.160;2023-04-04T03:52:44;100399.48;;;1.58;45.77
61436;BME280;47304;47.456;19.160;2023-04-04T03:55:11;100397.10;;;1.54;45.82
61436;BME280;47304;47.456;19.160;2023-04-04T03:57:37;100397.92;;;1.53;45.86
61436;BME280;47304;47.456;19.160;2023-04-04T04:00:04;100390.13;;;1.52;46.04
61436;BME280;47304;47.456;19.160;2023-04-04T04:02:31;100388.41;;;1.52;45.99
61436;BME280;47304;47.456;19.160;2023-04-04T04:04:57;100384.61;;;1.52;45.99
61436;BME280;47304;47.456;19.160;2023-04-04T04:07:24;100380.69;;;1.49;45.95
61436;BME280;47304;47.456;19.160;2023-04-04T04:09:50;100378.53;;;1.41;46.02
61436;BME280;47304;47.456;19.160;2023-04-04T04:12:17;100379.91;;;1.37;46.10
61436;BME280;47304;47.456;19.160;2023-04-04T04:14:43;100381.52;;;1.34;46.25
61436;BME280;47304;47.456;19.160;2023-04-04T04:17:10;100383.95;;;1.30;46.24
61436;BME280;47304;47.456;19.160;2023-04-04T04:19:36;100381.35;;;1.29;46.34
61436;BME280;47304;47.456;19.160;2023-04-04T04:22:03;100383.70;;;1.28;46.43
61436;BME280;47304;47.456;19.160;2023-04-04T04:24:29;100377.07;;;1.26;46.47
61436;BME280;47304;47.456;19.160;2023-04-04T04:26:56;100380.52;;;1.25;46.47
61436;BME280;47304;47.456;19.160;2023-04-04T04:29:22;100375.36;;;1.26;46.53
61436;BME280;47304;47.456;19.160;2023-04-04T04:31:49;100372.77;;;1.26;46.46
61436;BME280;47304;47.456;19.160;2023-04-04T04:34:15;100373.64;;;1.26;46.51
61436;BME280;47304;47.456;19.160;2023-04-04T04:36:42;100378.24;;;1.25;46.41
61436;BME280;47304;47.456;19.160;2023-04-04T04:39:08;100372.41;;;1.26;46.70
61436;BME280;47304;47.456;19.160;2023-04-04T04:41:35;100376.06;;;1.26;46.54
61436;BME280;47304;47.456;19.160;2023-04-04T04:44:01;100373.08;;;1.25;46.50
61436;BME280;47304;47.456;19.160;2023-04-04T04:46:28;100373.41;;;1.24;46.43
61436;BME280;47304;47.456;19.160;2023-04-04T04:48:54;100370.42;;;1.28;46.77
61436;BME280;47304;47.456;19.160;2023-04-04T04:51:21;100375.57;;;1.31;46.77
61436;BME280;47304;47.456;19.160;2023-04-04T04:53:47;100373.45;;;1.35;46.81
61436;BME280;47304;47.456;19.160;2023-04-04T04:56:14;100373.96;;;1.39;46.60
61436;BME280;47304;47.456;19.160;2023-04-04T04:58:40;100372.27;;;1.45;46.45
61436;BME280;47304;47.456;19.160;2023-04-04T05:01:07;100373.67;;;1.50;46.53
61436;BME280;47304;47.456;19.160;2023-04-04T05:03:33;100369.17;;;1.55;46.28
61436;BME280;47304;47.456;19.160;2023-04-04T05:06:00;100369.34;;;1.60;46.29
61436;BME280;47304;47.456;19.160;2023-04-04T05:08:26;100370.02;;;1.65;46.15
61436;BME280;47304;47.456;19.160;2023-04-04T05:10:53;100372.03;;;1.67;46.01
61436;BME280;47304;47.456;19.160;2023-04-04T05:13:19;100377.46;;;1.70;45.89
61436;BME280;47304;47.456;19.160;2023-04-04T05:15:46;100383.44;;;1.73;45.81
61436;BME280;47304;47.456;19.160;2023-04-04T05:18:12;100381.07;;;1.74;45.68
61436;BME280;47304;47.456;19.160;2023-04-04T05:20:39;100387.02;;;1.76;45.98
61436;BME280;47304;47.456;19.160;2023-04-04T05:23:06;100386.67;;;1.81;46.16
61436;BME280;47304;47.456;19.160;2023-04-04T05:25:33;100386.02;;;1.87;45.89
61436;BME280;47304;47.456;19.160;2023-04-04T05:28:00;100388.41;;;1.92;45.48
61436;BME280;47304;47.456;19.160;2023-04-04T05:30:26;100392.44;;;1.98;45.28
61436;BME280;47304;47.456;19.160;2023-04-04T05:32:53;100392.73;;;2.01;45.08
61436;BME280;47304;47.456;19.160;2023-04-04T05:35:19;100392.79;;;2.03;44.84
61436;BME280;47304;47.456;19.160;2023-04-04T05:37:46;100391.67;;;2.01;44.85
61436;BME280;47304;47.456;19.160;2023-04-04T05:40:13;100395.39;;;2.03;45.01
61436;BME280;47304;47.456;19.160;2023-04-04T05:42:39;100393.25;;;2.07;44.83
61436;BME280;47304;47.456;19.160;2023-04-04T05:45:06;100387.29;;;2.09;44.92
61436;BME280;47304;47.456;19.160;2023-04-04T05:47:33;100387.33;;;2.10;44.75
61436;BME280;47304;47.456;19.160;2023-04-04T05:50:00;100389.02;;;2.14;44.56
61436;BME280;47304;47.456;19.160;2023-04-04T05:52:26;100390.86;;;2.17;44.28
61436;BME280;47304;47.456;19.160;2023-04-04T05:54:53;100386.78;;;2.20;44.07
61436;BME280;47304;47.456;19.160;2023-04-04T05:57:19;100387.50;;;2.21;44.05
61436;BME280;47304;47.456;19.160;2023-04-04T05:59:46;100384.84;;;2.24;44.26
61436;BME280;47304;47.456;19.160;2023-04-04T06:02:12;100384.67;;;2.29;43.91
61436;BME280;47304;47.456;19.160;2023-04-04T06:04:39;100385.05;;;2.36;43.66
61436;BME280;47304;47.456;19.160;2023-04-04T06:07:05;100386.34;;;2.43;43.65
61436;BME280;47304;47.456;19.160;2023-04-04T06:09:32;100392.91;;;2.49;43.49
61436;BME280;47304;47.456;19.160;2023-04-04T06:11:59;100401.36;;;2.59;43.09
61436;BME280;47304;47.456;19.160;2023-04-04T06:14:25;100404.89;;;2.66;43.00
61436;BME280;47304;47.456;19.160;2023-04-04T06:16:52;100404.52;;;2.76;43.19
61436;BME280;47304;47.456;19.160;2023-04-04T06:19:19;100403.67;;;2.88;42.99
61436;BME280;47304;47.456;19.160;2023-04-04T06:21:47;100407.55;;;3.02;42.61
61436;BME280;47304;47.456;19.160;2023-04-04T06:24:13;100399.70;;;3.11;42.24
61436;BME280;47304;47.456;19.160;2023-04-04T06:26:40;100384.40;;;3.20;42.01
61436;BME280;47304;47.456;19.160;2023-04-04T06:29:06;100364.27;;;3.30;41.95
61436;BME280;47304;47.456;19.160;2023-04-04T06:31:33;100350.77;;;3.36;41.53
61436;BME280;47304;47.456;19.160;2023-04-04T06:33:59;100352.39;;;3.45;41.51
61436;BME280;47304;47.456;19.160;2023-04-04T06:36:26;100359.36;;;3.53;41.05
61436;BME280;47304;47.456;19.160;2023-04-04T06:38:53;100354.52;;;3.53;40.82
61436;BME280;47304;47.456;19.160;2023-04-04T06:41:19;100352.14;;;3.55;40.78
61436;BME280;47304;47.456;19.160;2023-04-04T06:43:46;100346.25;;;3.55;40.40
61436;BME280;47304;47.456;19.160;2023-04-04T06:46:12;100344.85;;;3.54;40.51
61436;BME280;47304;47.456;19.160;2023-04-04T06:48:39;100350.36;;;3.60;40.87
61436;BME280;47304;47.456;19.160;2023-04-04T06:51:06;100347.55;;;3.64;40.88
61436;BME280;47304;47.456;19.160;2023-04-04T06:53:33;100347.10;;;3.67;40.54
61436;BME280;47304;47.456;19.160;2023-04-04T06:56:00;100349.96;;;3.71;40.91
61436;BME280;47304;47.456;19.160;2023-04-04T06:58:27;100353.13;;;3.79;40.89
61436;BME280;47304;47.456;19.160;2023-04-04T07:00:53;100353.27;;;3.84;40.51
61436;BME280;47304;47.456;19.160;2023-04-04T07:03:20;100352.60;;;3.91;40.59
61436;BME280;47304;47.456;19.160;2023-04-04T07:05:46;100352.23;;;3.98;40.41
61436;BME280;47304;47.456;19.160;2023-04-04T07:08:13;100354.61;;;4.02;40.25
61436;BME280;47304;47.456;19.160;2023-04-04T07:10:39;100356.51;;;4.08;40.26
61436;BME280;47304;47.456;19.160;2023-04-04T07:13:06;100369.02;;;4.17;40.27
61436;BME280;47304;47.456;19.160;2023-04-04T07:15:33;100364.40;;;4.25;40.16
61436;BME280;47304;47.456;19.160;2023-04-04T07:17:59;100370.52;;;4.35;40.14
61436;BME280;47304;47.456;19.160;2023-04-04T07:20:26;100364.63;;;4.42;39.94
61436;BME280;47304;47.456;19.160;2023-04-04T07:22:53;100369.36;;;4.52;39.66
61436;BME280;47304;47.456;19.160;2023-04-04T07:25:20;100372.84;;;4.59;39.38
61436;BME280;47304;47.456;19.160;2023-04-04T07:27:48;100375.05;;;4.64;39.54
61436;BME280;47304;47.456;19.160;2023-04-04T07:30:18;100370.38;;;4.73;39.40
61436;BME280;47304;47.456;19.160;2023-04-04T07:32:44;100363.96;;;4.80;39.68
61436;BME280;47304;47.456;19.160;2023-04-04T07:35:11;100368.59;;;4.93;39.52
61436;BME280;47304;47.456;19.160;2023-04-04T07:37:37;100374.57;;;5.05;39.07
61436;BME280;47304;47.456;19.160;2023-04-04T07:40:05;100367.66;;;5.14;38.94
61436;BME280;47304;47.456;19.160;2023-04-04T07:42:32;100371.34;;;5.23;38.86
61436;BME280;47304;47.456;19.160;2023-04-04T07:44:59;100374.00;;;5.35;38.41
61436;BME280;47304;47.456;19.160;2023-04-04T07:47:25;100372.80;;;5.44;38.25
61436;BME280;47304;47.456;19.160;2023-04-04T07:49:52;100373.40;;;5.57;38.40
61436;BME280;47304;47.456;19.160;2023-04-04T07:52:18;100372.98;;;5.71;38.23
61436;BME280;47304;47.456;19.160;2023-04-04T07:54:45;100365.92;;;5.84;38.15
61436;BME280;47304;47.456;19.160;2023-04-04T07:57:11;100368.23;;;5.96;37.75
61436;BME280;47304;47.456;19.160;2023-04-04T07:59:38;100375.27;;;5.99;36.93
61436;BME280;47304;47.456;19.160;2023-04-04T08:02:04;100375.91;;;5.97;37.29
61436;BME280;47304;47.456;19.160;2023-04-04T08:04:30;100376.05;;;6.02;37.15
61436;BME280;47304;47.456;19.160;2023-04-04T08:06:57;100373.61;;;6.03;37.17
61436;BME280;47304;47.456;19.160;2023-04-04T08:09:24;100366.83;;;6.13;37.34
61436;BME280;47304;47.456;19.160;2023-04-04T08:11:50;100360.13;;;6.27;37.13
61436;BME280;47304;47.456;19.160;2023-04-04T08:14:17;100372.73;;;6.43;36.83
61436;BME280;47304;47.456;19.160;2023-04-04T08:16:43;100382.71;;;6.57;37.13
61436;BME280;47304;47.456;19.160;2023-04-04T08:19:10;100380.27;;;6.67;36.90
61436;BME280;47304;47.456;19.160;2023-04-04T08:21:37;100380.90;;;6.75;36.67
61436;BME280;47304;47.456;19.160;2023-04-04T08:24:03;100379.48;;;6.85;36.48
61436;BME280;47304;47.456;19.160;2023-04-04T08:26:30;100374.90;;;6.93;35.74
61436;BME280;47304;47.456;19.160;2023-04-04T08:28:56;100373.58;;;6.99;35.45
61436;BME280;47304;47.456;19.160;2023-04-04T08:31:23;100378.33;;;7.02;35.32
61436;BME280;47304;47.456;19.160;2023-04-04T08:33:49;100382.20;;;7.05;35.21
61436;BME280;47304;47.456;19.160;2023-04-04T08:36:16;100378.98;;;7.11;35.28
61436;BME280;47304;47.456;19.160;2023-04-04T08:38:42;100378.11;;;7.24;35.29
61436;BME280;47304;47.456;19.160;2023-04-04T08:41:10;100372.14;;;7.34;35.19
61436;BME280;47304;47.456;19.160;2023-04-04T08:43:38;100368.23;;;7.42;34.92
61436;BME280;47304;47.456;19.160;2023-04-04T08:46:04;100359.25;;;7.48;34.78
61436;BME280;47304;47.456;19.160;2023-04-04T08:48:32;100362.11;;;7.55;34.92
61436;BME280;47304;47.456;19.160;2023-04-04T08:50:59;100358.18;;;7.62;34.59
61436;BME280;47304;47.456;19.160;2023-04-04T08:53:27;100352.05;;;7.60;34.32
61436;BME280;47304;47.456;19.160;2023-04-04T08:55:55;100349.30;;;7.62;34.54
61436;BME280;47304;47.456;19.160;2023-04-04T08:58:25;100350.05;;;7.68;34.45
61436;BME280;47304;47.456;19.160;2023-04-04T09:00:53;100349.21;;;7.71;34.55
61436;BME280;47304;47.456;19.160;2023-04-04T09:03:25;100346.04;;;7.85;34.40
61436;BME280;47304;47.456;19.160;2023-04-04T09:05:55;100347.10;;;8.03;34.21
61436;BME280;47304;47.456;19.160;2023-04-04T09:08:22;100341.25;;;8.12;33.82
61436;BME280;47304;47.456;19.160;2023-04-04T09:10:49;100340.96;;;8.18;33.73
61436;BME280;47304;47.456;19.160;2023-04-04T09:13:16;100346.91;;;8.20;33.65
61436;BME280;47304;47.456;19.160;2023-04-04T09:15:46;100338.27;;;8.31;33.46
61436;BME280;47304;47.456;19.160;2023-04-04T09:18:12;100337.45;;;8.38;33.39
61436;BME280;47304;47.456;19.160;2023-04-04T09:20:42;100343.64;;;8.46;33.42
61436;BME280;47304;47.456;19.160;2023-04-04T09:23:14;100341.13;;;8.56;32.88
61436;BME280;47304;47.456;19.160;2023-04-04T09:25:54;100344.48;;;8.61;33.25
61436;BME280;47304;47.456;19.160;2023-04-04T09:28:30;100342.81;;;8.74;33.68
61436;BME280;47304;47.456;19.160;2023-04-04T09:30:59;100335.23;;;8.89;33.15
61436;BME280;47304;47.456;19.160;2023-04-04T09:33:26;100334.61;;;9.05;33.07
61436;BME280;47304;47.456;19.160;2023-04-04T09:35:55;100333.11;;;9.19;32.60
61436;BME280;47304;47.456;19.160;2023-04-04T09:38:23;100324.77;;;9.27;32.31
61436;BME280;47304;47.456;19.160;2023-04-04T09:40:51;100330.02;;;9.34;32.28
61436;BME280;47304;47.456;19.160;2023-04-04T09:43:18;100330.36;;;9.29;31.68
61436;BME280;47304;47.456;19.160;2023-04-04T09:45:45;100324.39;;;9.25;31.64
61436;BME280;47304;47.456;19.160;2023-04-04T09:48:13;100319.13;;;9.20;31.66
61436;BME280;47304;47.456;19.160;2023-04-04T09:50:50;100306.04;;;9.24;31.79
61436;BME280;47304;47.456;19.160;2023-04-04T09:53:17;100317.45;;;9.34;31.48
61436;BME280;47304;47.456;19.160;2023-04-04T09:55:51;100324.25;;;9.31;31.09
61436;BME280;47304;47.456;19.160;2023-04-04T09:58:24;100327.90;;;9.27;31.10
61436;BME280;47304;47.456;19.160;2023-04-04T10:00:54;100328.45;;;9.31;30.95
61436;BME280;47304;47.456;19.160;2023-04-04T10:03:22;100325.15;;;9.39;30.91
61436;BME280;47304;47.456;19.160;2023-04-04T10:05:59;100321.15;;;9.48;30.72
61436;BME280;47304;47.456;19.160;2023-04-04T10:08:27;100317.89;;;9.68;30.41
61436;BME280;47304;47.456;19.160;2023-04-04T10:11:02;100315.67;;;10.07;30.65
61436;BME280;47304;47.456;19.160;2023-04-04T10:13:33;100316.00;;;10.83;29.35
61436;BME280;47304;47.456;19.160;2023-04-04T10:16:03;100305.75;;;11.49;28.76
61436;BME280;47304;47.456;19.160;2023-04-04T10:18:31;100308.14;;;12.15;28.55
61436;BME280;47304;47.456;19.160;2023-04-04T10:21:01;100304.20;;;12.83;27.95
61436;BME280;47304;47.456;19.160;2023-04-04T10:23:41;100293.83;;;13.43;27.20
61436;BME280;47304;47.456;19.160;2023-04-04T10:26:10;100288.04;;;13.80;26.82
61436;BME280;47304;47.456;19.160;2023-04-04T10:28:37;100284.13;;;14.47;26.29
61436;BME280;47304;47.456;19.160;2023-04-04T10:31:21;100280.67;;;15.09;24.98
61436;BME280;47304;47.456;19.160;2023-04-04T10:37:12;100276.27;;;15.74;22.89
61436;BME280;47304;47.456;19.160;2023-04-04T10:39:48;100280.05;;;15.79;23.58
61436;BME280;47304;47.456;19.160;2023-04-04T10:42:18;100277.50;;;16.34;23.93
61436;BME280;47304;47.456;19.160;2023-04-04T10:44:44;100282.40;;;16.70;23.61
61436;BME280;47304;47.456;19.160;2023-04-04T10:47:22;100281.61;;;16.79;23.24
61436;BME280;47304;47.456;19.160;2023-04-04T10:49:50;100283.27;;;17.15;22.51
61436;BME280;47304;47.456;19.160;2023-04-04T10:52:19;100278.56;;;17.56;22.19
61436;BME280;47304;47.456;19.160;2023-04-04T10:54:49;100277.14;;;17.67;22.56
61436;BME280;47304;47.456;19.160;2023-04-04T10:57:18;100277.54;;;17.54;22.33
61436;BME280;47304;47.456;19.160;2023-04-04T11:02:44;100286.48;;;18.29;21.34
61436;BME280;47304;47.456;19.160;2023-04-04T11:05:33;100278.33;;;19.29;20.82
61436;BME280;47304;47.456;19.160;2023-04-04T11:08:05;100274.91;;;20.67;20.14
61436;BME280;47304;47.456;19.160;2023-04-04T11:13:08;100261.92;;;22.38;18.68
61436;BME280;47304;47.456;19.160;2023-04-04T11:18:19;100261.75;;;23.00;17.53
61436;BME280;47304;47.456;19.160;2023-04-04T11:21:02;100261.39;;;22.01;16.18
61436;BME280;47304;47.456;19.160;2023-04-04T11:26:18;100268.30;;;20.80;16.86
61436;BME280;47304;47.456;19.160;2023-04-04T11:29:01;100268.09;;;20.56;17.65
61436;BME280;47304;47.456;19.160;2023-04-04T11:31:31;100264.50;;;20.97;18.01
61436;BME280;47304;47.456;19.160;2023-04-04T11:34:10;100259.85;;;21.79;17.68
61436;BME280;47304;47.456;19.160;2023-04-04T11:39:21;100250.12;;;22.49;16.91
61436;BME280;47304;47.456;19.160;2023-04-04T11:44:33;100253.88;;;21.99;16.98
61436;BME280;47304;47.456;19.160;2023-04-04T11:47:01;100250.20;;;21.26;17.45
61436;BME280;47304;47.456;19.160;2023-04-04T11:49:29;100250.45;;;20.61;17.98
61436;BME280;47304;47.456;19.160;2023-04-04T11:51:58;100249.84;;;20.00;18.56
61436;BME280;47304;47.456;19.160;2023-04-04T11:54:25;100248.59;;;19.41;19.06
61436;BME280;47304;47.456;19.160;2023-04-04T11:56:52;100246.84;;;18.93;19.01
61436;BME280;47304;47.456;19.160;2023-04-04T11:59:20;100249.64;;;18.39;19.32
61436;BME280;47304;47.456;19.160;2023-04-04T12:01:47;100241.21;;;17.94;19.55
61436;BME280;47304;47.456;19.160;2023-04-04T12:04:17;100238.70;;;17.38;19.83
61436;BME280;47304;47.456;19.160;2023-04-04T12:06:55;100242.87;;;16.86;20.69
61436;BME280;47304;47.456;19.160;2023-04-04T12:09:22;100240.52;;;16.49;20.88
61436;BME280;47304;47.456;19.160;2023-04-04T12:11:51;100241.21;;;16.23;21.13
61436;BME280;47304;47.456;19.160;2023-04-04T12:14:22;100237.16;;;15.93;21.34
61436;BME280;47304;47.456;19.160;2023-04-04T12:16:53;100234.16;;;15.70;21.59
61436;BME280;47304;47.456;19.160;2023-04-04T12:19:24;100232.77;;;15.47;21.79
61436;BME280;47304;47.456;19.160;2023-04-04T12:21:52;100227.66;;;15.22;22.13
61436;BME280;47304;47.456;19.160;2023-04-04T12:24:19;100226.20;;;15.00;22.55
61436;BME280;47304;47.456;19.160;2023-04-04T12:26:49;100217.98;;;14.80;22.69
61436;BME280;47304;47.456;19.160;2023-04-04T12:29:17;100215.63;;;14.63;22.91
61436;BME280;47304;47.456;19.160;2023-04-04T12:31:45;100216.46;;;14.47;23.62
61436;BME280;47304;47.456;19.160;2023-04-04T12:34:21;100212.51;;;14.32;23.74
61436;BME280;47304;47.456;19.160;2023-04-04T12:36:52;100214.89;;;14.16;23.69
61436;BME280;47304;47.456;19.160;2023-04-04T12:39:21;100217.98;;;14.02;23.67
61436;BME280;47304;47.456;19.160;2023-04-04T12:41:51;100216.45;;;13.86;24.26
61436;BME280;47304;47.456;19.160;2023-04-04T12:44:33;100211.83;;;13.79;24.21
61436;BME280;47304;47.456;19.160;2023-04-04T12:47:02;100210.10;;;13.77;24.10
61436;BME280;47304;47.456;19.160;2023-04-04T12:49:30;100209.34;;;13.69;24.49
61436;BME280;47304;47.456;19.160;2023-04-04T12:51:58;100210.70;;;13.62;24.71
61436;BME280;47304;47.456;19.160;2023-04-04T12:54:26;100207.83;;;13.54;24.77
61436;BME280;47304;47.456;19.160;2023-04-04T12:56:57;100202.96;;;13.49;24.81
61436;BME280;47304;47.456;19.160;2023-04-04T12:59:27;100201.81;;;13.42;24.70
61436;BME280;47304;47.456;19.160;2023-04-04T13:01:55;100200.39;;;13.32;24.95
61436;BME280;47304;47.456;19.160;2023-04-04T13:04:22;100201.85;;;13.27;24.69
61436;BME280;47304;47.456;19.160;2023-04-04T13:06:50;100208.63;;;13.20;24.55
61436;BME280;47304;47.456;19.160;2023-04-04T13:09:17;100210.11;;;13.13;24.71
61436;BME280;47304;47.456;19.160;2023-04-04T13:11:59;100207.72;;;13.08;24.76
61436;BME280;47304;47.456;19.160;2023-04-04T13:14:57;100198.30;;;13.03;25.14